createdAt,value
2022-12-18T00:00:09.301Z,101800.13
2022-12-18T00:02:37.845Z,101798.34
2022-12-18T00:05:06.847Z,101800.81
2022-12-18T00:07:35.347Z,101798.16
2022-12-18T00:10:04.181Z,101793.94
2022-12-18T00:12:32.605Z,101792.31
2022-12-18T00:15:01.078Z,101790.97
2022-12-18T00:17:29.585Z,101800.69
2022-12-18T00:19:58.005Z,101800.03
2022-12-18T00:22:26.382Z,101798.22
2022-12-18T00:24:54.797Z,101800.00
2022-12-18T00:27:23.295Z,101801.69
2022-12-18T00:29:51.809Z,101797.41
2022-12-18T00:32:20.462Z,101787.00
2022-12-18T00:34:49.016Z,101786.97
2022-12-18T00:37:20.288Z,101783.56
2022-12-18T00:39:51.481Z,101786.16
2022-12-18T00:42:37.644Z,101781.88
2022-12-18T00:45:12.055Z,101783.72
2022-12-18T00:47:41.676Z,101791.44
2022-12-18T00:50:11.257Z,101787.91
2022-12-18T00:52:42.373Z,101799.16
2022-12-18T00:55:11.155Z,101800.91
2022-12-18T00:57:39.753Z,101805.19
2022-12-18T01:00:10.824Z,101800.03
2022-12-18T01:02:39.455Z,101800.13
2022-12-18T01:05:08.653Z,101801.03
2022-12-18T01:07:37.223Z,101794.19
2022-12-18T01:10:06.663Z,101799.38
2022-12-18T01:12:35.720Z,101803.81
2022-12-18T01:15:04.500Z,101805.75
2022-12-18T01:17:32.911Z,101809.50
2022-12-18T01:20:01.404Z,101808.56
2022-12-18T01:22:30.003Z,101805.13
2022-12-18T01:24:58.428Z,101809.34
2022-12-18T01:27:26.935Z,101813.25
2022-12-18T01:29:55.591Z,101813.31
2022-12-18T01:32:24.444Z,101815.91
2022-12-18T01:34:52.898Z,101825.38
2022-12-18T01:37:21.328Z,101818.44
2022-12-18T01:39:51.004Z,101828.91
2022-12-18T01:42:19.564Z,101842.75
2022-12-18T01:45:09.173Z,101838.34
2022-12-18T01:48:01.391Z,101833.22
2022-12-18T01:50:43.006Z,101833.16
2022-12-18T01:53:24.248Z,101831.44
2022-12-18T01:56:00.255Z,101837.59
2022-12-18T01:59:03.986Z,101843.59
2022-12-18T02:01:34.226Z,101840.88
2022-12-18T02:04:26.331Z,101843.53
2022-12-18T02:07:34.965Z,101837.59
2022-12-18T02:10:30.005Z,101845.53
2022-12-18T02:13:16.593Z,101849.81
2022-12-18T02:16:39.933Z,101858.59
2022-12-18T02:19:45.407Z,101855.31
2022-12-18T02:22:41.871Z,101851.91
2022-12-18T02:25:39.934Z,101843.25
2022-12-18T02:28:13.644Z,101847.44
2022-12-18T02:30:43.379Z,101838.56
2022-12-18T02:33:14.398Z,101840.41
2022-12-18T02:35:44.084Z,101844.84
2022-12-18T02:38:12.717Z,101845.78
2022-12-18T02:40:42.811Z,101832.06
2022-12-18T02:43:13.978Z,101844.91
2022-12-18T02:45:58.964Z,101843.13
2022-12-18T02:48:35.127Z,101837.97
2022-12-18T02:51:26.562Z,101834.53
2022-12-18T02:54:08.589Z,101836.38
2022-12-18T02:56:53.562Z,101844.13
2022-12-18T02:59:31.828Z,101844.84
2022-12-18T03:02:24.896Z,101845.41
2022-12-18T03:05:14.620Z,101846.13
2022-12-18T03:08:09.937Z,101834.88
2022-12-18T03:10:45.089Z,101842.38
2022-12-18T03:13:24.182Z,101853.50
2022-12-18T03:15:55.351Z,101853.66
2022-12-18T03:18:29.847Z,101858.03
2022-12-18T03:21:02.838Z,101864.16
2022-12-18T03:23:39.959Z,101862.50
2022-12-18T03:26:13.356Z,101881.69
2022-12-18T03:28:52.850Z,101887.00
2022-12-18T03:31:25.700Z,101883.66
2022-12-18T03:33:58.208Z,101877.72
2022-12-18T03:36:26.949Z,101880.06
2022-12-18T03:38:59.348Z,101874.91
2022-12-18T03:41:47.282Z,101875.88
2022-12-18T03:44:46.383Z,101880.31
2022-12-18T03:47:49.181Z,101871.78
2022-12-18T03:50:48.976Z,101870.94
2022-12-18T03:53:28.901Z,101865.69
2022-12-18T03:55:59.192Z,101863.06
2022-12-18T03:58:29.534Z,101863.16
2022-12-18T04:01:02.793Z,101877.03
2022-12-18T04:03:36.261Z,101878.81
2022-12-18T04:06:05.452Z,101869.31
2022-12-18T04:08:35.793Z,101864.91
2022-12-18T04:11:05.317Z,101870.94
2022-12-18T04:13:41.467Z,101872.66
2022-12-18T04:16:10.610Z,101872.69
2022-12-18T04:18:39.032Z,101866.66
2022-12-18T04:21:07.759Z,101861.66
2022-12-18T04:23:36.705Z,101855.66
2022-12-18T04:26:05.482Z,101855.69
2022-12-18T04:28:33.887Z,101851.47
2022-12-18T04:31:02.440Z,101861.84
2022-12-18T04:33:31.178Z,101871.41
2022-12-18T04:35:59.923Z,101862.75
2022-12-18T04:38:28.316Z,101861.00
2022-12-18T04:40:56.734Z,101859.94
2022-12-18T04:43:25.247Z,101856.53
2022-12-18T04:45:53.920Z,101857.59
2022-12-18T04:48:23.150Z,101863.72
2022-12-18T04:50:51.630Z,101860.41
2022-12-18T04:53:20.058Z,101855.25
2022-12-18T04:55:48.552Z,101857.03
2022-12-18T04:58:17.046Z,101860.66
2022-12-18T05:00:45.562Z,101853.91
2022-12-18T05:03:14.037Z,101860.06
2022-12-18T05:05:42.510Z,101858.28
2022-12-18T05:08:10.939Z,101855.81
2022-12-18T05:10:39.461Z,101852.25
2022-12-18T05:13:07.846Z,101863.38
2022-12-18T05:15:36.768Z,101863.38
2022-12-18T05:18:05.748Z,101860.72
2022-12-18T05:20:41.646Z,101862.38
2022-12-18T05:23:10.191Z,101861.47
2022-12-18T05:25:38.862Z,101866.66
2022-12-18T05:28:07.773Z,101866.59
2022-12-18T05:30:36.509Z,101873.50
2022-12-18T05:33:05.118Z,101874.44
2022-12-18T05:35:33.648Z,101879.63
2022-12-18T05:38:02.132Z,101879.59
2022-12-18T05:40:30.667Z,101868.38
2022-12-18T05:43:00.134Z,101876.28
2022-12-18T05:45:28.720Z,101891.00
2022-12-18T05:47:57.203Z,101890.28
2022-12-18T05:50:25.936Z,101887.78
2022-12-18T05:52:54.531Z,101897.28
2022-12-18T05:55:23.311Z,101900.72
2022-12-18T05:57:52.399Z,101906.72
2022-12-18T06:00:21.038Z,101897.22
2022-12-18T06:02:50.394Z,101898.91
2022-12-18T06:05:18.803Z,101903.31
2022-12-18T06:07:47.602Z,101905.13
2022-12-18T06:10:16.081Z,101906.78
2022-12-18T06:12:45.296Z,101906.78
2022-12-18T06:15:14.269Z,101919.63
2022-12-18T06:17:42.910Z,101915.19
2022-12-18T06:20:11.830Z,101915.09
2022-12-18T06:22:40.549Z,101916.75
2022-12-18T06:25:09.899Z,101923.63
2022-12-18T06:27:38.748Z,101924.50
2022-12-18T06:30:08.538Z,101926.28
2022-12-18T06:32:37.289Z,101915.84
2022-12-18T06:35:06.138Z,101923.63
2022-12-18T06:37:34.924Z,101928.75
2022-12-18T06:40:03.507Z,101932.16
2022-12-18T06:42:33.104Z,101928.63
2022-12-18T06:45:01.761Z,101926.75
2022-12-18T06:47:30.385Z,101925.88
2022-12-18T06:49:59.035Z,101928.47
2022-12-18T06:52:27.561Z,101932.13
2022-12-18T06:54:56.302Z,101936.53
2022-12-18T06:57:24.801Z,101931.34
2022-12-18T06:59:53.799Z,101926.28
2022-12-18T07:02:22.473Z,101928.81
2022-12-18T07:04:51.409Z,101927.03
2022-12-18T07:07:20.018Z,101926.03
2022-12-18T07:09:48.660Z,101932.84
2022-12-18T07:12:17.225Z,101925.78
2022-12-18T07:14:45.947Z,101926.88
2022-12-18T07:17:14.582Z,101933.75
2022-12-18T07:19:43.208Z,101938.03
2022-12-18T07:22:11.970Z,101940.41
2022-12-18T07:24:40.458Z,101941.09
2022-12-18T07:27:08.831Z,101942.16
2022-12-18T07:29:38.817Z,101945.81
2022-12-18T07:32:08.782Z,101948.50
2022-12-18T07:34:37.552Z,101938.03
2022-12-18T07:37:06.158Z,101956.16
2022-12-18T07:39:34.542Z,101945.00
2022-12-18T07:42:20.251Z,101954.44
2022-12-18T07:44:49.986Z,101956.03
2022-12-18T07:47:18.262Z,101956.84
2022-12-18T07:49:46.860Z,101961.75
2022-12-18T07:52:15.678Z,101980.00
2022-12-18T07:54:43.947Z,101966.28
2022-12-18T07:57:27.384Z,101973.13
2022-12-18T08:00:00.683Z,101975.78
2022-12-18T08:02:29.295Z,101986.88
2022-12-18T08:04:57.815Z,101985.97
2022-12-18T08:07:26.282Z,101978.16
2022-12-18T08:09:54.738Z,101978.94
2022-12-18T08:12:23.194Z,101966.78
2022-12-18T08:14:51.617Z,101977.06
2022-12-18T08:17:21.302Z,101975.38
2022-12-18T08:19:49.798Z,101985.78
2022-12-18T08:22:18.336Z,101989.31
2022-12-18T08:24:47.139Z,101991.09
2022-12-18T08:27:31.233Z,101994.66
2022-12-18T08:30:00.317Z,101999.84
2022-12-18T08:32:32.571Z,101995.50
2022-12-18T08:35:01.346Z,102003.28
2022-12-18T08:37:30.023Z,102007.56
2022-12-18T08:39:58.529Z,101999.69
2022-12-18T08:42:44.293Z,102004.72
2022-12-18T08:45:18.602Z,102001.28
2022-12-18T08:47:47.074Z,102003.13
2022-12-18T08:50:17.906Z,102002.41
2022-12-18T08:52:46.547Z,102005.00
2022-12-18T08:55:15.723Z,102005.72
2022-12-18T08:57:44.331Z,102013.56
2022-12-18T09:00:14.221Z,101999.78
2022-12-18T09:02:43.816Z,102005.78
2022-12-18T09:05:12.512Z,102016.91
2022-12-18T09:07:41.020Z,102024.69
2022-12-18T09:10:09.843Z,102015.06
2022-12-18T09:12:40.580Z,102027.88
2022-12-18T09:15:09.433Z,102014.97
2022-12-18T09:17:37.800Z,102014.97
2022-12-18T09:20:07.045Z,102019.16
2022-12-18T09:22:35.582Z,102011.31
2022-12-18T09:25:04.358Z,101997.63
2022-12-18T09:27:33.026Z,102014.06
2022-12-18T09:30:01.670Z,102007.25
2022-12-18T09:32:30.419Z,101999.25
2022-12-18T09:34:58.914Z,102000.06
2022-12-18T09:37:27.499Z,102000.66
2022-12-18T09:39:56.023Z,101996.31
2022-12-18T09:42:24.940Z,101985.03
2022-12-18T09:44:56.607Z,101977.34
2022-12-18T09:47:33.823Z,101974.72
2022-12-18T09:50:11.629Z,101980.81
2022-12-18T09:52:54.636Z,101960.03
2022-12-18T09:55:37.141Z,101958.13
2022-12-18T09:58:36.019Z,101961.38
2022-12-18T10:01:04.584Z,101952.56
2022-12-18T10:03:34.075Z,101949.03
2022-12-18T10:06:08.675Z,101944.50
2022-12-18T10:09:10.496Z,101946.06
2022-12-18T10:12:26.527Z,101941.53
2022-12-18T10:15:28.158Z,101937.09
2022-12-18T10:18:21.841Z,101930.19
2022-12-18T10:20:58.319Z,101934.47
2022-12-18T10:23:49.583Z,101942.16
2022-12-18T10:26:18.055Z,101929.03
2022-12-18T10:28:47.122Z,101923.78
2022-12-18T10:31:24.330Z,101919.44
2022-12-18T10:33:53.865Z,101924.22
2022-12-18T10:36:26.200Z,101926.00
2022-12-18T10:38:55.552Z,101920.78
2022-12-18T10:41:26.938Z,101921.59
2022-12-18T10:44:28.173Z,101924.13
2022-12-18T10:47:10.201Z,101925.88
2022-12-18T10:49:52.850Z,101923.31
2022-12-18T10:52:25.797Z,101915.66
2022-12-18T10:55:02.784Z,101912.00
2022-12-18T10:57:32.798Z,101904.28
2022-12-18T11:00:21.683Z,101905.94
2022-12-18T11:02:50.581Z,101909.34
2022-12-18T11:05:45.627Z,101908.09
2022-12-18T11:08:26.513Z,101914.06
2022-12-18T11:10:55.457Z,101916.50
2022-12-18T11:13:27.590Z,101915.69
2022-12-18T11:15:56.655Z,101914.72
2022-12-18T11:18:34.255Z,101912.88
2022-12-18T11:21:14.716Z,101925.81
2022-12-18T11:23:55.506Z,101924.13
2022-12-18T11:26:24.502Z,101926.75
2022-12-18T11:29:12.001Z,101927.78
2022-12-18T11:31:40.563Z,101919.00
2022-12-18T11:34:29.028Z,101925.75
2022-12-18T11:36:58.401Z,101927.38
2022-12-18T11:39:52.491Z,101938.63
2022-12-18T11:42:38.327Z,101945.25
2022-12-18T11:45:15.436Z,101941.63
2022-12-18T11:47:55.537Z,101939.72
2022-12-18T11:50:28.837Z,101934.25
2022-12-18T11:53:01.513Z,101935.75
2022-12-18T11:55:56.918Z,101930.63
2022-12-18T11:59:06.944Z,101924.56
2022-12-18T12:01:41.957Z,101920.13
2022-12-18T12:04:43.137Z,101912.22
2022-12-18T12:07:20.120Z,101917.06
2022-12-18T12:10:29.202Z,101915.25
2022-12-18T12:13:25.327Z,101919.63
2022-12-18T12:15:56.801Z,101906.41
2022-12-18T12:18:44.265Z,101909.13
2022-12-18T12:21:29.459Z,101898.69
2022-12-18T12:24:18.439Z,101887.22
2022-12-18T12:27:31.250Z,101880.16
2022-12-18T12:30:11.987Z,101888.66
2022-12-18T12:33:03.754Z,101869.84
2022-12-18T12:36:53.626Z,101867.94
2022-12-18T12:39:30.212Z,101874.34
2022-12-18T12:42:16.872Z,101884.97
2022-12-18T12:44:57.887Z,101876.91
2022-12-18T12:47:33.219Z,101886.16
2022-12-18T12:50:05.906Z,101887.19
2022-12-18T12:52:57.979Z,101900.94
2022-12-18T12:55:31.372Z,101887.19
2022-12-18T12:58:32.413Z,101881.41
2022-12-18T13:01:42.843Z,101879.59
2022-12-18T13:04:14.734Z,101872.34
2022-12-18T13:07:07.995Z,101868.72
2022-12-18T13:10:17.809Z,101873.25
2022-12-18T13:13:10.564Z,101849.69
2022-12-18T13:16:11.639Z,101839.03
2022-12-18T13:18:40.570Z,101846.72
2022-12-18T13:21:28.118Z,101846.66
2022-12-18T13:23:57.320Z,101845.38
2022-12-18T13:26:29.119Z,101838.59
2022-12-18T13:28:59.667Z,101831.88
2022-12-18T13:31:43.479Z,101842.16
2022-12-18T13:34:28.309Z,101846.13
2022-12-18T13:37:33.812Z,101845.16
2022-12-18T13:40:02.773Z,101848.72
2022-12-18T13:42:58.575Z,101852.97
2022-12-18T13:45:44.743Z,101844.38
2022-12-18T13:48:24.428Z,101848.66
2022-12-18T13:51:13.075Z,101840.50
2022-12-18T13:53:48.933Z,101830.09
2022-12-18T13:56:25.369Z,101815.25
2022-12-18T13:59:36.973Z,101811.91
2022-12-18T14:02:40.667Z,101813.00
2022-12-18T14:05:29.639Z,101815.69
2022-12-18T14:08:12.454Z,101820.94
2022-12-18T14:10:48.386Z,101827.13
2022-12-18T14:13:30.779Z,101816.56
2022-12-18T14:16:04.129Z,101820.28
2022-12-18T14:18:48.778Z,101821.81
2022-12-18T14:21:30.401Z,101823.31
2022-12-18T14:24:23.620Z,101818.66
2022-12-18T14:26:53.134Z,101825.47
2022-12-18T14:29:21.735Z,101810.84
2022-12-18T14:32:17.301Z,101820.28
2022-12-18T14:34:56.750Z,101818.91
2022-12-18T14:37:28.403Z,101824.13
2022-12-18T14:40:11.360Z,101820.78
2022-12-18T14:42:40.065Z,101811.13
2022-12-18T14:45:47.485Z,101813.06
2022-12-18T14:48:23.584Z,101811.03
2022-12-18T14:51:23.411Z,101789.63
2022-12-18T14:53:58.789Z,101800.00
2022-12-18T14:56:36.994Z,101805.22
2022-12-18T14:59:26.616Z,101796.69
2022-12-18T15:02:13.532Z,101804.19
2022-12-18T15:04:45.045Z,101783.72
2022-12-18T15:07:23.679Z,101788.28
2022-12-18T15:10:04.034Z,101794.25
2022-12-18T15:12:58.852Z,101796.88
2022-12-18T15:15:36.962Z,101789.91
2022-12-18T15:18:11.287Z,101797.63
2022-12-18T15:20:58.326Z,101801.13
2022-12-18T15:23:41.380Z,101806.22
2022-12-18T15:26:12.861Z,101813.13
2022-12-18T15:28:56.357Z,101802.66
2022-12-18T15:31:35.878Z,101807.06
2022-12-18T15:34:24.049Z,101804.41
2022-12-18T15:36:53.289Z,101805.25
2022-12-18T15:39:21.808Z,101808.72
2022-12-18T15:42:07.602Z,101806.88
2022-12-18T15:44:36.285Z,101793.16
2022-12-18T15:47:04.779Z,101794.25
2022-12-18T15:49:33.974Z,101796.75
2022-12-18T15:52:04.148Z,101795.91
2022-12-18T15:54:49.983Z,101783.63
2022-12-18T15:57:27.582Z,101791.53
2022-12-18T15:59:59.390Z,101781.88
2022-12-18T16:02:29.511Z,101787.09
2022-12-18T16:04:58.199Z,101791.25
2022-12-18T16:07:30.303Z,101781.97
2022-12-18T16:10:00.293Z,101770.97
2022-12-18T16:12:30.861Z,101755.63
2022-12-18T16:14:59.408Z,101756.56
2022-12-18T16:17:27.952Z,101759.13
2022-12-18T16:19:56.503Z,101759.22
2022-12-18T16:22:30.501Z,101759.38
2022-12-18T16:24:59.840Z,101768.91
2022-12-18T16:27:28.637Z,101764.66
2022-12-18T16:29:57.139Z,101764.75
2022-12-18T16:32:25.591Z,101771.50
2022-12-18T16:34:54.045Z,101764.75
2022-12-18T16:37:22.576Z,101763.09
2022-12-18T16:39:51.010Z,101766.50
2022-12-18T16:42:21.184Z,101764.66
2022-12-18T16:44:50.765Z,101765.41
2022-12-18T16:47:19.908Z,101756.66
2022-12-18T16:49:51.783Z,101745.16
2022-12-18T16:52:20.670Z,101746.81
2022-12-18T16:54:49.278Z,101751.94
2022-12-18T16:57:21.565Z,101738.81
2022-12-18T16:59:53.925Z,101734.03
2022-12-18T17:02:28.479Z,101721.78
2022-12-18T17:04:59.652Z,101723.59
2022-12-18T17:07:29.221Z,101721.34
2022-12-18T17:10:00.480Z,101721.25
2022-12-18T17:12:29.012Z,101715.13
2022-12-18T17:14:57.551Z,101706.50
2022-12-18T17:17:26.048Z,101705.56
2022-12-18T17:19:54.802Z,101700.25
2022-12-18T17:22:24.327Z,101702.88
2022-12-18T17:24:55.649Z,101704.66
2022-12-18T17:27:24.006Z,101703.81
2022-12-18T17:29:54.732Z,101703.41
2022-12-18T17:32:23.233Z,101696.75
2022-12-18T17:34:51.773Z,101695.75
2022-12-18T17:37:20.183Z,101683.44
2022-12-18T17:39:48.613Z,101686.19
2022-12-18T17:42:17.003Z,101684.50
2022-12-18T17:44:55.341Z,101685.31
2022-12-18T17:47:24.022Z,101685.00
2022-12-18T17:49:52.612Z,101685.66
2022-12-18T17:52:22.283Z,101683.03
2022-12-18T17:54:50.733Z,101687.94
2022-12-18T17:57:19.230Z,101684.34
2022-12-18T18:02:39.963Z,101686.63
2022-12-18T18:05:08.761Z,101682.22
2022-12-18T18:07:40.129Z,101681.22
2022-12-18T18:10:09.056Z,101687.28
2022-12-18T18:12:56.331Z,101685.25
2022-12-18T18:15:24.767Z,101677.13
2022-12-18T18:17:53.225Z,101688.19
2022-12-18T18:20:22.989Z,101681.09
2022-12-18T18:22:51.595Z,101676.63
2022-12-18T18:25:19.989Z,101663.41
2022-12-18T18:27:48.863Z,101659.91
2022-12-18T18:30:24.036Z,101652.88
2022-12-18T18:32:52.812Z,101666.88
2022-12-18T18:35:52.230Z,101655.72
2022-12-18T18:38:10.760Z,101653.09
2022-12-18T18:40:39.125Z,101670.31
2022-12-18T18:43:07.712Z,101660.91
2022-12-18T18:45:36.302Z,101642.63
2022-12-18T18:48:04.774Z,101647.78
2022-12-18T18:50:33.638Z,101641.41
2022-12-18T18:53:02.125Z,101650.75
2022-12-18T18:55:31.018Z,101636.31
2022-12-18T18:57:59.453Z,101633.00
2022-12-18T19:00:29.280Z,101637.31
2022-12-18T19:03:00.768Z,101628.50
2022-12-18T19:05:29.441Z,101630.78
2022-12-18T19:08:02.087Z,101618.81
2022-12-18T19:10:30.513Z,101614.31
2022-12-18T19:13:16.216Z,101612.13
2022-12-18T19:15:45.938Z,101609.38
2022-12-18T19:18:14.622Z,101601.78
2022-12-18T19:20:43.285Z,101599.19
2022-12-18T19:23:12.149Z,101593.09
2022-12-18T19:25:41.753Z,101588.75
2022-12-18T19:28:21.960Z,101594.19
2022-12-18T19:30:56.379Z,101596.59
2022-12-18T19:33:44.414Z,101589.88
2022-12-18T19:36:40.114Z,101587.91
2022-12-18T19:39:16.237Z,101581.59
2022-12-18T19:41:45.040Z,101586.69
2022-12-18T19:44:15.681Z,101579.88
2022-12-18T19:46:44.515Z,101577.25
2022-12-18T19:49:17.336Z,101569.31
2022-12-18T19:51:46.733Z,101569.31
2022-12-18T19:54:17.516Z,101571.03
2022-12-18T19:56:46.681Z,101578.66
2022-12-18T19:59:21.869Z,101569.94
2022-12-18T20:01:53.525Z,101580.25
2022-12-18T20:04:22.149Z,101585.22
2022-12-18T20:06:53.307Z,101589.66
2022-12-18T20:09:22.810Z,101581.63
2022-12-18T20:11:52.327Z,101576.28
2022-12-18T20:14:23.456Z,101569.97
2022-12-18T20:16:57.952Z,101562.75
2022-12-18T20:19:28.764Z,101560.91
2022-12-18T20:21:57.591Z,101562.84
2022-12-18T20:24:27.070Z,101565.22
2022-12-18T20:26:56.495Z,101570.97
2022-12-18T20:29:24.980Z,101566.50
2022-12-18T20:31:53.454Z,101570.94
2022-12-18T20:34:22.077Z,101566.50
2022-12-18T20:36:51.484Z,101572.63
2022-12-18T20:39:21.020Z,101571.53
2022-12-18T20:41:51.060Z,101562.69
2022-12-18T20:44:22.990Z,101567.84
2022-12-18T20:46:59.258Z,101582.44
2022-12-18T20:49:29.653Z,101582.31
2022-12-18T20:51:59.518Z,101588.31
2022-12-18T20:54:28.925Z,101588.31
2022-12-18T20:56:58.070Z,101589.31
2022-12-18T20:59:26.997Z,101585.84
2022-12-18T21:01:55.642Z,101585.78
2022-12-18T21:04:24.921Z,101583.84
2022-12-18T21:07:01.909Z,101578.47
2022-12-18T21:09:37.173Z,101556.47
2022-12-18T21:12:41.682Z,101563.25
2022-12-18T21:15:18.675Z,101545.50
2022-12-18T21:17:47.373Z,101543.56
2022-12-18T21:20:18.061Z,101539.03
2022-12-18T21:22:49.355Z,101557.25
2022-12-18T21:25:17.997Z,101550.19
2022-12-18T21:27:46.478Z,101551.00
2022-12-18T21:30:15.292Z,101564.25
2022-12-18T21:32:44.081Z,101557.97
2022-12-18T21:35:12.671Z,101566.69
2022-12-18T21:37:40.865Z,101578.44
2022-12-18T21:40:10.112Z,101567.41
2022-12-18T21:42:55.935Z,101551.56
2022-12-18T21:45:24.610Z,101547.72
2022-12-18T21:47:53.223Z,101538.19
2022-12-18T21:50:21.632Z,101531.75
2022-12-18T21:52:50.164Z,101530.03
2022-12-18T21:55:18.572Z,101527.38
2022-12-18T21:57:46.986Z,101525.34
2022-12-18T22:00:19.135Z,101520.91
2022-12-18T22:03:05.681Z,101526.22
2022-12-18T22:05:37.974Z,101525.34
2022-12-18T22:08:07.554Z,101525.09
2022-12-18T22:10:36.485Z,101503.47
2022-12-18T22:13:06.275Z,101503.00
2022-12-18T22:15:34.853Z,101502.34
2022-12-18T22:18:03.296Z,101483.41
2022-12-18T22:20:31.672Z,101491.38
2022-12-18T22:23:04.364Z,101486.22
2022-12-18T22:25:35.248Z,101470.69
2022-12-18T22:28:23.092Z,101487.22
2022-12-18T22:30:54.880Z,101482.84
2022-12-18T22:33:27.920Z,101485.13
2022-12-18T22:35:56.505Z,101494.84
2022-12-18T22:38:24.934Z,101500.72
2022-12-18T22:40:53.349Z,101500.53
2022-12-18T22:43:22.011Z,101502.06
2022-12-18T22:45:50.470Z,101496.84
2022-12-18T22:48:19.178Z,101479.50
2022-12-18T22:50:47.578Z,101457.66
2022-12-18T22:53:17.588Z,101439.47
2022-12-18T22:55:45.986Z,101445.59
2022-12-18T22:58:14.643Z,101471.44
2022-12-18T23:00:44.626Z,101462.38
2022-12-18T23:03:13.332Z,101449.94
2022-12-18T23:05:41.879Z,101459.63
2022-12-18T23:08:10.273Z,101443.84
2022-12-18T23:10:41.620Z,101431.78
2022-12-18T23:13:10.092Z,101436.25
2022-12-18T23:15:43.575Z,101442.66
2022-12-18T23:18:12.135Z,101432.34
2022-12-18T23:20:40.769Z,101441.78
2022-12-18T23:23:10.066Z,101440.03
2022-12-18T23:25:38.507Z,101439.19
2022-12-18T23:28:07.152Z,101414.91
2022-12-18T23:30:35.561Z,101403.50
2022-12-18T23:33:03.972Z,101401.56
2022-12-18T23:35:32.601Z,101394.06
2022-12-18T23:38:01.082Z,101392.44
2022-12-18T23:40:30.447Z,101389.88
2022-12-18T23:43:00.055Z,101398.50
2022-12-18T23:45:28.592Z,101412.47
2022-12-18T23:47:57.008Z,101416.66
2022-12-18T23:50:29.451Z,101401.88
2022-12-18T23:53:02.087Z,101397.47
2022-12-18T23:55:34.961Z,101390.31
2022-12-18T23:58:03.491Z,101397.56
